Terminal Aerodrome Forecast
Issued by NWS

Current Version | Previous Version | Text Only | Print | Product List | Glossary On
Versions: 1 2 3 4 5 6 7 8 9 10 11 12 13 14 15
865
FTUS43 KJKL 132320
TAFSME
TAF
KSME 132320Z 1400/1424 25014G25KT P6SM SCT060 BKN100
     FM140700 28012G18KT P6SM BKN030
     FM141100 31009KT P6SM OVC020
     FM141700 34004KT P6SM BKN050=

USA.gov is the U.S. government's official web portal to all federal, state and local government web resources and services.